createdAt,value
2019-03-24T00:01:03.377Z,111.87
2019-03-24T00:03:32.190Z,100.75
2019-03-24T00:06:00.399Z,107.83
2019-03-24T00:08:28.636Z,114.07
2019-03-24T00:10:57.046Z,99.90
2019-03-24T00:13:26.181Z,104.67
2019-03-24T00:15:54.460Z,105.43
2019-03-24T00:18:23.122Z,105.70
2019-03-24T00:20:51.834Z,98.53
2019-03-24T00:23:20.816Z,111.13
2019-03-24T00:25:49.414Z,110.33
2019-03-24T00:28:18.165Z,107.33
2019-03-24T00:30:46.400Z,99.77
2019-03-24T00:33:15.888Z,111.93
2019-03-24T00:35:44.908Z,104.53
2019-03-24T00:38:13.715Z,111.00
2019-03-24T00:40:42.602Z,109.90
2019-03-24T00:43:10.929Z,108.03
2019-03-24T00:45:39.301Z,115.40
2019-03-24T00:48:07.535Z,102.47
2019-03-24T00:50:36.795Z,103.00
2019-03-24T00:53:05.928Z,108.40
2019-03-24T00:55:34.908Z,112.77
2019-03-24T00:58:03.550Z,104.40
2019-03-24T01:00:47.099Z,100.43
2019-03-24T01:03:15.753Z,109.87
2019-03-24T01:05:44.176Z,110.93
2019-03-24T01:08:12.764Z,111.40
2019-03-24T01:10:43.184Z,109.60
2019-03-24T01:13:13.424Z,111.13
2019-03-24T01:15:47.621Z,116.90
2019-03-24T01:18:13.106Z,115.07
2019-03-24T01:20:41.548Z,113.53
2019-03-24T01:23:11.162Z,104.60
2019-03-24T01:25:39.425Z,105.27
2019-03-24T01:28:07.757Z,107.87
2019-03-24T01:30:36.128Z,114.10
2019-03-24T01:33:04.655Z,101.30
2019-03-24T01:35:32.925Z,114.17
2019-03-24T01:38:01.583Z,118.23
2019-03-24T01:40:30.032Z,118.43
2019-03-24T01:42:58.212Z,117.83
2019-03-24T01:45:26.752Z,117.33
2019-03-24T01:47:55.404Z,114.63
2019-03-24T01:50:23.587Z,119.07
2019-03-24T01:52:51.828Z,119.80
2019-03-24T01:55:20.607Z,113.80
2019-03-24T01:57:49.303Z,103.30
2019-03-24T02:00:39.576Z,117.93
2019-03-24T02:03:08.192Z,116.77
2019-03-24T02:05:36.385Z,118.17
2019-03-24T02:08:04.615Z,114.87
2019-03-24T02:10:32.977Z,116.23
2019-03-24T02:13:01.544Z,112.63
2019-03-24T02:15:30.462Z,113.17
2019-03-24T02:17:59.073Z,127.67
2019-03-24T02:20:28.479Z,111.03
2019-03-24T02:22:57.464Z,123.60
2019-03-24T02:25:25.662Z,121.97
2019-03-24T02:27:53.808Z,117.03
2019-03-24T02:30:22.018Z,118.40
2019-03-24T02:32:50.235Z,123.33
2019-03-24T02:35:18.491Z,116.70
2019-03-24T02:37:46.929Z,111.20
2019-03-24T02:40:15.221Z,123.23
2019-03-24T02:42:43.646Z,118.87
2019-03-24T02:45:12.765Z,128.63
2019-03-24T02:47:40.989Z,122.70
2019-03-24T02:50:28.563Z,123.10
2019-03-24T02:52:56.738Z,128.67
2019-03-24T02:55:24.892Z,117.50
2019-03-24T02:57:53.086Z,120.27
2019-03-24T03:00:21.267Z,125.90
2019-03-24T03:02:49.735Z,127.67
2019-03-24T03:05:18.040Z,117.50
2019-03-24T03:07:46.285Z,131.73
2019-03-24T03:10:14.629Z,120.53
2019-03-24T03:12:42.925Z,122.83
2019-03-24T03:15:12.685Z,127.50
2019-03-24T03:17:40.950Z,129.30
2019-03-24T03:20:09.626Z,125.10
2019-03-24T03:22:38.058Z,126.27
2019-03-24T03:25:07.610Z,120.83
2019-03-24T03:27:35.735Z,121.53
2019-03-24T03:30:04.800Z,122.93
2019-03-24T03:32:33.123Z,116.73
2019-03-24T03:35:01.414Z,123.27
2019-03-24T03:37:29.980Z,129.27
2019-03-24T03:39:58.638Z,122.83
2019-03-24T03:42:27.250Z,125.20
2019-03-24T03:44:55.473Z,111.53
2019-03-24T03:47:23.708Z,131.03
2019-03-24T03:49:52.083Z,133.27
2019-03-24T03:52:20.533Z,124.13
2019-03-24T03:54:48.849Z,122.13
2019-03-24T03:57:17.062Z,138.90
2019-03-24T03:59:45.766Z,123.70
2019-03-24T04:02:14.104Z,125.33
2019-03-24T04:04:42.294Z,127.17
2019-03-24T04:07:10.562Z,132.17
2019-03-24T04:09:38.845Z,119.00
2019-03-24T04:12:07.091Z,121.53
2019-03-24T04:14:35.307Z,123.00
2019-03-24T04:17:07.659Z,119.80
2019-03-24T04:19:33.558Z,121.97
2019-03-24T04:22:01.936Z,118.57
2019-03-24T04:24:30.230Z,121.87
2019-03-24T04:26:58.665Z,119.23
2019-03-24T04:29:26.989Z,124.03
2019-03-24T04:31:55.455Z,127.17
2019-03-24T04:34:23.739Z,124.90
2019-03-24T04:36:52.398Z,119.07
2019-03-24T04:39:20.642Z,121.30
2019-03-24T04:41:49.045Z,125.17
2019-03-24T04:44:17.470Z,121.80
2019-03-24T04:46:45.813Z,129.53
2019-03-24T04:49:14.141Z,125.03
2019-03-24T04:51:42.661Z,117.97
2019-03-24T04:54:10.903Z,127.83
2019-03-24T04:56:39.089Z,124.87
2019-03-24T04:59:07.470Z,127.07
2019-03-24T05:01:35.701Z,113.93
2019-03-24T05:04:04.323Z,125.43
2019-03-24T05:06:32.693Z,128.77
2019-03-24T05:09:01.525Z,129.10
2019-03-24T05:11:29.756Z,109.60
2019-03-24T05:13:58.146Z,122.50
2019-03-24T05:16:26.321Z,124.20
2019-03-24T05:18:54.790Z,125.63
2019-03-24T05:21:26.146Z,134.40
2019-03-24T05:23:54.786Z,123.40
2019-03-24T05:26:35.143Z,131.43
2019-03-24T05:29:03.394Z,124.00
2019-03-24T05:31:31.638Z,117.70
2019-03-24T05:33:59.899Z,125.83
2019-03-24T05:36:28.406Z,111.23
2019-03-24T05:38:56.692Z,129.70
2019-03-24T05:41:24.995Z,119.00
2019-03-24T05:43:53.257Z,120.93
2019-03-24T05:46:21.527Z,116.80
2019-03-24T05:48:50.224Z,121.07
2019-03-24T05:51:18.521Z,124.50
2019-03-24T05:53:46.779Z,119.13
2019-03-24T05:56:15.087Z,115.67
2019-03-24T05:58:43.237Z,113.27
2019-03-24T06:01:11.414Z,119.20
2019-03-24T06:03:39.622Z,123.33
2019-03-24T06:06:07.841Z,119.13
2019-03-24T06:08:36.074Z,114.83
2019-03-24T06:11:04.508Z,119.43
2019-03-24T06:13:32.828Z,99.87
2019-03-24T06:16:01.066Z,110.53
2019-03-24T06:18:29.362Z,115.93
2019-03-24T06:20:57.564Z,111.83
2019-03-24T06:23:25.776Z,97.83
2019-03-24T06:25:54.049Z,98.03
2019-03-24T06:28:22.284Z,98.27
2019-03-24T06:30:50.461Z,105.10
2019-03-24T06:33:19.058Z,95.93
2019-03-24T06:35:47.245Z,99.53
2019-03-24T06:38:15.596Z,101.93
2019-03-24T06:40:43.823Z,93.10
2019-03-24T06:43:12.036Z,90.73
2019-03-24T06:45:40.316Z,97.33
2019-03-24T06:48:08.584Z,96.07
2019-03-24T06:50:37.002Z,100.17
2019-03-24T06:53:05.344Z,94.00
2019-03-24T06:55:33.602Z,89.33
2019-03-24T06:58:01.837Z,91.07
2019-03-24T07:00:29.814Z,89.73
2019-03-24T07:02:57.798Z,90.03
2019-03-24T07:05:25.803Z,88.23
2019-03-24T07:07:53.834Z,86.60
2019-03-24T07:10:21.833Z,86.77
2019-03-24T07:12:51.510Z,97.13
2019-03-24T07:15:19.673Z,78.23
2019-03-24T07:17:47.656Z,83.57
2019-03-24T07:20:15.695Z,89.60
2019-03-24T07:22:43.701Z,88.43
2019-03-24T07:25:11.674Z,90.90
2019-03-24T07:27:39.619Z,83.67
2019-03-24T07:30:09.855Z,80.23
2019-03-24T07:32:37.801Z,86.63
2019-03-24T07:35:05.996Z,75.97
2019-03-24T07:37:33.991Z,86.53
2019-03-24T07:40:01.972Z,83.93
2019-03-24T07:42:29.953Z,81.07
2019-03-24T07:44:57.957Z,79.67
2019-03-24T07:47:25.962Z,81.60
2019-03-24T07:49:54.016Z,79.40
2019-03-24T07:52:21.989Z,76.40
2019-03-24T07:54:49.962Z,76.67
2019-03-24T07:57:18.223Z,86.77
2019-03-24T07:59:46.546Z,79.13
2019-03-24T08:02:14.503Z,75.00
2019-03-24T08:04:42.582Z,73.53
2019-03-24T08:07:10.550Z,77.03
2019-03-24T08:09:38.697Z,80.93
2019-03-24T08:12:06.811Z,79.83
2019-03-24T08:14:34.747Z,74.03
2019-03-24T08:17:02.846Z,78.30
2019-03-24T08:19:30.801Z,87.97
2019-03-24T08:21:59.755Z,78.57
2019-03-24T08:24:27.738Z,78.40
2019-03-24T08:26:55.698Z,75.33
2019-03-24T08:29:23.678Z,73.13
2019-03-24T08:31:52.061Z,74.37
2019-03-24T08:34:20.014Z,75.47
2019-03-24T08:36:48.132Z,72.37
2019-03-24T08:39:16.485Z,75.10
2019-03-24T08:41:44.574Z,71.77
2019-03-24T08:44:13.087Z,72.70
2019-03-24T08:46:41.580Z,72.45
2019-03-24T08:49:09.735Z,75.72
2019-03-24T08:51:38.062Z,70.70
2019-03-24T08:54:06.462Z,67.05
2019-03-24T08:56:35.709Z,71.82
2019-03-24T08:59:03.729Z,70.10
2019-03-24T09:01:32.240Z,67.53
2019-03-24T09:04:01.021Z,76.42
2019-03-24T09:06:29.449Z,68.70
2019-03-24T09:08:58.733Z,74.97
2019-03-24T09:11:31.403Z,77.70
2019-03-24T09:13:58.090Z,71.12
2019-03-24T09:16:26.933Z,80.95
2019-03-24T09:18:55.275Z,73.45
2019-03-24T09:21:23.296Z,75.78
2019-03-24T09:23:51.460Z,71.87
2019-03-24T09:26:19.518Z,70.52
2019-03-24T09:28:48.184Z,73.45
2019-03-24T09:31:16.467Z,67.85
2019-03-24T09:33:45.300Z,69.25
2019-03-24T09:36:13.379Z,76.53
2019-03-24T09:38:41.414Z,74.35
2019-03-24T09:41:09.531Z,73.42
2019-03-24T09:43:38.194Z,69.90
2019-03-24T09:46:06.251Z,71.82
2019-03-24T09:48:34.734Z,70.52
2019-03-24T09:51:03.150Z,67.55
2019-03-24T09:53:31.217Z,69.55
2019-03-24T09:55:59.832Z,70.85
2019-03-24T09:58:28.236Z,64.42
2019-03-24T10:00:57.254Z,67.85
2019-03-24T10:03:26.685Z,69.58
2019-03-24T10:05:54.739Z,72.90
2019-03-24T10:08:23.820Z,68.57
2019-03-24T10:10:51.913Z,68.80
2019-03-24T10:13:20.139Z,71.97
2019-03-24T10:15:48.265Z,66.57
2019-03-24T10:18:18.163Z,67.78
2019-03-24T10:20:46.640Z,69.70
2019-03-24T10:23:14.970Z,72.82
2019-03-24T10:25:43.533Z,67.97
2019-03-24T10:28:11.986Z,72.90
2019-03-24T10:30:40.305Z,65.92
2019-03-24T10:33:09.068Z,71.05
2019-03-24T10:35:38.166Z,66.90
2019-03-24T10:38:06.198Z,78.45
2019-03-24T10:40:34.227Z,69.97
2019-03-24T10:43:03.141Z,71.95
2019-03-24T10:45:31.465Z,63.48
2019-03-24T10:47:59.800Z,70.30
2019-03-24T10:50:28.322Z,67.47
2019-03-24T10:52:57.037Z,76.45
2019-03-24T10:55:25.233Z,70.83
2019-03-24T10:57:53.741Z,72.90
2019-03-24T11:00:47.784Z,67.08
2019-03-24T11:03:35.437Z,68.25
2019-03-24T11:06:19.011Z,72.55
2019-03-24T11:08:47.432Z,71.28
2019-03-24T11:11:15.949Z,66.45
2019-03-24T11:13:44.757Z,67.92
2019-03-24T11:16:12.922Z,72.70
2019-03-24T11:18:41.273Z,68.85
2019-03-24T11:21:09.987Z,70.70
2019-03-24T11:23:39.880Z,70.70
2019-03-24T11:26:08.658Z,74.60
2019-03-24T11:28:36.614Z,66.30
2019-03-24T11:31:04.763Z,72.03
2019-03-24T11:33:32.832Z,68.70
2019-03-24T11:36:01.687Z,71.40
2019-03-24T11:38:29.785Z,77.65
2019-03-24T11:40:58.536Z,68.60
2019-03-24T11:43:26.894Z,74.07
2019-03-24T11:45:55.022Z,72.22
2019-03-24T11:48:23.572Z,77.97
2019-03-24T11:50:52.140Z,71.87
2019-03-24T11:53:20.285Z,78.83
2019-03-24T11:55:48.490Z,75.75
2019-03-24T11:58:17.847Z,74.03
2019-03-24T12:00:46.315Z,78.70
2019-03-24T12:03:14.701Z,71.90
2019-03-24T12:05:43.208Z,73.85
2019-03-24T12:08:11.397Z,71.40
2019-03-24T12:10:39.512Z,77.17
2019-03-24T12:13:08.016Z,74.15
2019-03-24T12:15:37.020Z,70.90
2019-03-24T12:18:05.343Z,72.35
2019-03-24T12:20:34.141Z,74.17
2019-03-24T12:23:03.125Z,78.67
2019-03-24T12:25:31.544Z,73.42
2019-03-24T12:28:00.086Z,74.37
2019-03-24T12:30:28.405Z,83.87
2019-03-24T12:33:15.729Z,82.12
2019-03-24T12:35:44.246Z,85.55
2019-03-24T12:38:12.705Z,79.00
2019-03-24T12:40:41.078Z,80.70
2019-03-24T12:43:18.896Z,76.25
2019-03-24T12:45:39.321Z,85.28
2019-03-24T12:48:07.646Z,84.28
2019-03-24T12:50:36.001Z,87.22
2019-03-24T12:53:04.395Z,76.92
2019-03-24T12:55:32.851Z,77.12
2019-03-24T12:58:02.023Z,75.30
2019-03-24T13:00:35.536Z,77.00
2019-03-24T13:03:04.385Z,83.75
2019-03-24T13:05:33.061Z,74.55
2019-03-24T13:08:11.103Z,77.60
2019-03-24T13:10:40.285Z,74.07
2019-03-24T13:13:08.285Z,75.57
2019-03-24T13:15:36.267Z,70.78
2019-03-24T13:18:04.380Z,71.57
2019-03-24T13:20:38.203Z,70.78
2019-03-24T13:23:02.218Z,74.42
2019-03-24T13:25:30.251Z,81.15
2019-03-24T13:27:58.215Z,67.45
2019-03-24T13:30:26.221Z,74.92
2019-03-24T13:32:54.211Z,74.42
2019-03-24T13:35:22.636Z,73.57
2019-03-24T13:37:51.276Z,74.92
2019-03-24T13:40:19.320Z,70.70
2019-03-24T13:42:47.477Z,72.65
2019-03-24T13:45:15.909Z,71.80
2019-03-24T13:47:43.986Z,66.53
2019-03-24T13:50:12.355Z,68.37
2019-03-24T13:52:40.871Z,64.32
2019-03-24T13:55:10.233Z,64.37
2019-03-24T13:57:38.304Z,66.47
2019-03-24T14:00:06.777Z,68.22
2019-03-24T14:02:38.924Z,62.62
2019-03-24T14:05:07.179Z,72.82
2019-03-24T14:07:35.294Z,69.37
2019-03-24T14:10:03.528Z,70.40
2019-03-24T14:12:31.587Z,61.73
2019-03-24T14:14:59.705Z,61.92
2019-03-24T14:17:27.735Z,64.67
2019-03-24T14:19:56.120Z,60.08
2019-03-24T14:22:24.172Z,67.45
2019-03-24T14:24:52.221Z,67.42
2019-03-24T14:27:20.480Z,68.30
2019-03-24T14:29:48.549Z,63.30
2019-03-24T14:32:16.611Z,68.33
2019-03-24T14:34:44.831Z,63.20
2019-03-24T14:37:12.839Z,63.05
2019-03-24T14:40:06.933Z,62.00
2019-03-24T14:42:38.534Z,62.93
2019-03-24T14:45:07.410Z,64.10
2019-03-24T14:47:35.417Z,62.17
2019-03-24T14:50:05.086Z,65.90
2019-03-24T14:52:33.490Z,66.97
2019-03-24T14:55:01.535Z,65.75
2019-03-24T14:57:29.511Z,67.95
2019-03-24T14:59:57.587Z,68.52
2019-03-24T15:02:25.618Z,69.72
2019-03-24T15:04:53.679Z,62.17
2019-03-24T15:07:21.944Z,60.48
2019-03-24T15:09:50.347Z,62.17
2019-03-24T15:12:18.337Z,62.60
2019-03-24T15:14:46.377Z,59.23
2019-03-24T15:17:14.370Z,60.63
2019-03-24T15:19:42.828Z,65.47
2019-03-24T15:22:10.869Z,63.42
2019-03-24T15:24:38.844Z,60.35
2019-03-24T15:27:06.901Z,62.48
2019-03-24T15:29:34.951Z,59.18
2019-03-24T15:32:02.966Z,58.75
2019-03-24T15:34:31.269Z,62.85
2019-03-24T15:36:59.294Z,59.15
2019-03-24T15:39:27.330Z,56.02
2019-03-24T15:41:55.416Z,61.13
2019-03-24T15:44:23.557Z,62.38
2019-03-24T15:46:51.621Z,68.12
2019-03-24T15:49:19.636Z,56.42
2019-03-24T15:51:47.721Z,55.38
2019-03-24T15:54:15.752Z,56.83
2019-03-24T15:56:44.528Z,56.75
2019-03-24T15:59:12.600Z,57.27
2019-03-24T16:01:40.675Z,51.63
2019-03-24T16:04:08.702Z,59.40
2019-03-24T16:06:36.809Z,54.05
2019-03-24T16:09:06.556Z,55.23
2019-03-24T16:11:34.708Z,52.75
2019-03-24T16:14:02.764Z,52.88
2019-03-24T16:16:30.763Z,61.92
2019-03-24T16:18:59.023Z,58.00
2019-03-24T16:21:27.991Z,52.73
2019-03-24T16:23:56.903Z,56.18
2019-03-24T16:26:33.146Z,58.45
2019-03-24T16:29:01.131Z,58.85
2019-03-24T16:31:29.130Z,54.83
2019-03-24T16:33:57.159Z,61.40
2019-03-24T16:36:25.121Z,56.18
2019-03-24T16:39:03.199Z,54.20
2019-03-24T16:41:22.966Z,57.65
2019-03-24T16:43:50.978Z,57.67
2019-03-24T16:46:18.957Z,57.08
2019-03-24T16:48:46.959Z,57.93
2019-03-24T16:51:14.983Z,53.90
2019-03-24T16:53:43.036Z,53.42
2019-03-24T16:56:11.039Z,53.92
2019-03-24T16:58:39.006Z,53.15
2019-03-24T17:01:07.077Z,51.40
2019-03-24T17:03:35.095Z,51.00
2019-03-24T17:06:03.084Z,55.55
2019-03-24T17:08:31.080Z,55.28
2019-03-24T17:10:59.140Z,53.28
2019-03-24T17:13:27.118Z,59.03
2019-03-24T17:15:55.187Z,57.80
2019-03-24T17:18:23.223Z,50.65
2019-03-24T17:20:51.231Z,55.43
2019-03-24T17:23:19.246Z,53.15
2019-03-24T17:25:47.260Z,52.88
2019-03-24T17:28:15.314Z,52.62
2019-03-24T17:30:43.362Z,49.50
2019-03-24T17:33:11.449Z,46.23
2019-03-24T17:35:39.450Z,49.98
2019-03-24T17:38:42.139Z,48.70
2019-03-24T17:41:10.167Z,46.00
2019-03-24T17:43:38.245Z,44.67
2019-03-24T17:46:06.534Z,45.10
2019-03-24T17:48:34.623Z,44.20
2019-03-24T17:51:02.655Z,45.85
2019-03-24T17:53:30.732Z,43.75
2019-03-24T17:55:58.783Z,42.80
2019-03-24T17:58:26.864Z,40.15
2019-03-24T18:00:56.672Z,52.58
2019-03-24T18:03:24.698Z,42.33
2019-03-24T18:05:52.747Z,36.53
2019-03-24T18:08:20.789Z,37.65
2019-03-24T18:10:48.916Z,30.75
2019-03-24T18:13:16.950Z,34.48
2019-03-24T18:15:45.012Z,32.70
2019-03-24T18:18:18.397Z,29.50
2019-03-24T18:20:46.401Z,30.10
2019-03-24T18:23:14.449Z,32.67
2019-03-24T18:25:42.527Z,33.70
2019-03-24T18:28:10.534Z,30.37
2019-03-24T18:30:38.557Z,32.23
2019-03-24T18:33:06.786Z,28.25
2019-03-24T18:35:35.937Z,31.37
2019-03-24T18:38:04.421Z,32.00
2019-03-24T18:40:32.502Z,28.90
2019-03-24T18:43:01.587Z,24.77
2019-03-24T18:45:29.676Z,26.00
2019-03-24T18:47:57.728Z,26.87
2019-03-24T18:50:25.763Z,29.45
2019-03-24T18:52:53.770Z,27.70
2019-03-24T18:55:21.856Z,23.32
2019-03-24T18:57:49.854Z,31.55
2019-03-24T19:00:19.482Z,22.75
2019-03-24T19:02:47.598Z,24.57
2019-03-24T19:05:15.838Z,32.48
2019-03-24T19:07:43.854Z,27.95
2019-03-24T19:10:12.348Z,23.02
2019-03-24T19:12:40.362Z,23.57
2019-03-24T19:15:10.653Z,26.50
2019-03-24T19:17:38.678Z,28.35
2019-03-24T19:20:07.268Z,25.57
2019-03-24T19:22:35.857Z,25.20
2019-03-24T19:25:04.413Z,25.82
2019-03-24T19:27:32.510Z,24.20
2019-03-24T19:30:22.127Z,20.02
2019-03-24T19:32:50.336Z,22.00
2019-03-24T19:35:18.382Z,24.50
2019-03-24T19:37:46.537Z,22.50
2019-03-24T19:40:33.761Z,24.75
2019-03-24T19:43:01.846Z,24.05
2019-03-24T19:45:29.991Z,21.40
2019-03-24T19:47:57.993Z,19.82
2019-03-24T19:50:26.243Z,19.70
2019-03-24T19:52:54.303Z,21.60
2019-03-24T19:55:41.711Z,20.70
2019-03-24T19:58:09.754Z,16.35
2019-03-24T20:00:38.138Z,18.45
2019-03-24T20:03:06.798Z,17.12
2019-03-24T20:05:35.181Z,18.60
2019-03-24T20:08:03.926Z,21.73
2019-03-24T20:10:33.816Z,18.98
2019-03-24T20:13:01.928Z,18.07
2019-03-24T20:15:29.935Z,22.17
2019-03-24T20:17:58.006Z,20.77
2019-03-24T20:20:26.037Z,20.20
2019-03-24T20:22:56.715Z,18.85
2019-03-24T20:25:23.931Z,21.48
2019-03-24T20:27:51.949Z,18.98
2019-03-24T20:30:20.157Z,21.52
2019-03-24T20:32:48.217Z,21.07
2019-03-24T20:35:16.645Z,21.35
2019-03-24T20:37:44.667Z,24.37
2019-03-24T20:40:12.698Z,21.75
2019-03-24T20:42:40.791Z,21.07
2019-03-24T20:45:09.462Z,23.98
2019-03-24T20:47:37.845Z,20.02
2019-03-24T20:50:06.346Z,28.07
2019-03-24T20:52:34.371Z,23.62
2019-03-24T20:55:03.321Z,24.20
2019-03-24T20:57:31.690Z,24.07
2019-03-24T20:59:59.709Z,25.15
2019-03-24T21:02:27.811Z,21.30
2019-03-24T21:04:55.827Z,28.23
2019-03-24T21:07:24.180Z,22.60
2019-03-24T21:09:52.491Z,27.40
2019-03-24T21:12:20.854Z,23.87
2019-03-24T21:14:48.905Z,24.72
2019-03-24T21:17:17.001Z,26.25
2019-03-24T21:19:44.995Z,30.00
2019-03-24T21:22:13.449Z,26.60
2019-03-24T21:24:41.514Z,24.12
2019-03-24T21:27:09.559Z,32.63
2019-03-24T21:29:37.936Z,31.10
2019-03-24T21:32:05.947Z,33.67
2019-03-24T21:34:34.410Z,29.90
2019-03-24T21:37:02.418Z,25.87
2019-03-24T21:39:30.521Z,30.93
2019-03-24T21:41:58.592Z,27.87
2019-03-24T21:44:26.639Z,28.27
2019-03-24T21:46:54.922Z,36.27
2019-03-24T21:49:23.030Z,29.93
2019-03-24T21:51:51.031Z,31.80
2019-03-24T21:54:19.069Z,33.90
2019-03-24T21:56:47.114Z,40.30
2019-03-24T21:59:15.255Z,34.43
2019-03-24T22:01:43.244Z,38.13
2019-03-24T22:04:11.313Z,38.03
2019-03-24T22:06:39.359Z,40.27
2019-03-24T22:09:07.803Z,41.67
2019-03-24T22:11:35.894Z,39.90
2019-03-24T22:14:03.870Z,37.30
2019-03-24T22:16:32.436Z,41.17
2019-03-24T22:19:00.459Z,38.97
2019-03-24T22:21:28.427Z,36.63
2019-03-24T22:23:56.480Z,37.77
2019-03-24T22:26:24.488Z,33.63
2019-03-24T22:28:52.593Z,40.00
2019-03-24T22:31:21.214Z,44.30
2019-03-24T22:33:49.919Z,34.07
2019-03-24T22:36:17.928Z,39.07
2019-03-24T22:38:46.866Z,42.57
2019-03-24T22:41:14.900Z,41.47
2019-03-24T22:43:42.956Z,37.50
2019-03-24T22:46:10.949Z,46.57
2019-03-24T22:48:38.942Z,38.53
2019-03-24T22:51:06.984Z,36.07
2019-03-24T22:53:35.019Z,38.07
2019-03-24T22:56:22.468Z,38.13
2019-03-24T22:58:50.628Z,35.97
2019-03-24T23:01:19.174Z,35.70
2019-03-24T23:03:47.159Z,39.80
2019-03-24T23:06:15.184Z,36.73
2019-03-24T23:08:43.177Z,37.30
2019-03-24T23:11:11.259Z,30.57
2019-03-24T23:13:39.925Z,35.03
2019-03-24T23:16:08.008Z,36.83
2019-03-24T23:18:36.058Z,28.60
2019-03-24T23:21:04.147Z,33.90
2019-03-24T23:23:32.310Z,29.43
2019-03-24T23:26:00.726Z,28.60
2019-03-24T23:28:29.114Z,30.20
2019-03-24T23:30:57.382Z,28.70
2019-03-24T23:33:25.422Z,30.70
2019-03-24T23:35:53.422Z,27.63
2019-03-24T23:38:21.480Z,27.60
2019-03-24T23:40:49.511Z,26.60
2019-03-24T23:43:17.816Z,29.67
2019-03-24T23:45:45.941Z,33.80
2019-03-24T23:48:13.980Z,32.17
2019-03-24T23:50:42.029Z,31.03
2019-03-24T23:53:10.159Z,30.03
2019-03-24T23:55:38.483Z,29.70
2019-03-24T23:58:06.504Z,38.10
